Kamikawa Maru — JG5687 — position and weather

sailwx.info

Track history (hours):
 
Tides and Currents Weather Stations Pressure Air Temp Water Temp Dewpoint Dewpoint Depression Visibility Wind Speed Wind Dir Waves Ship Positions

Kamikawa Maru

Last reported at 2014-Sep-30 12:08 UTC. Time now 2014-Oct-02 06:27 UTC.
Position N 35°02' E 139°44'.

Length 162 m; draft 6.8 m.

Type: Cargo ship. MMSI: 431101012.

Date/timePositionNaut miles runAvg speedWind from/ knotsBaromVisibWave heightAir tempDewpointWater temp
2014-Sep-30 12:08N 35°02' E 139°44'1118.4
2014-Sep-30 11:33N 35°13' E 139°46'1312.9
2014-Sep-30 10:33N 35°26' E 139°44'1212.4
2014-Sep-30 09:33N 35°38' E 139°46'0 0.1
2014-Sep-30 08:15N 35°38' E 139°46'0 0.0
2014-Sep-30 06:31N 35°38' E 139°46'0 0.0
2014-Sep-30 05:31N 35°38' E 139°46'0 0.0
2014-Sep-30 04:33N 35°38' E 139°46'0 0.0
2014-Sep-30 03:33N 35°38' E 139°46'0 0.0
2014-Sep-30 02:31N 35°38' E 139°46'0 0.1
2014-Sep-30 01:33N 35°38' E 139°46'0 0.0
2014-Sep-30 00:32N 35°38' E 139°46'0 0.1
2014-Sep-29 23:33N 35°38' E 139°46'10 9.8
2014-Sep-29 22:33N 35°30' E 139°52'1212.4
2014-Sep-29 21:34N 35°19' E 139°44'1413.8
2014-Sep-29 20:33N 35°05' E 139°45'2 0.1
2014-Sep-28 07:33N 35°07' E 139°43'1413.6
2014-Sep-28 06:34N 35°21' E 139°42'1614.8
2014-Sep-28 05:28N 35°36' E 139°46'1 0.2
2014-Sep-27 23:31N 35°38' E 139°46'8 3.7
2014-Sep-27 21:24N 35°33' E 139°53'1213.9
2014-Sep-27 20:33N 35°23' E 139°46'1211.7
2014-Sep-27 19:33N 35°11' E 139°47'  
2014-Sep-21 08:33N 35°02' E 139°37'1615.5
2014-Sep-21 07:33N 35°17' E 139°45'1211.8
2014-Sep-21 06:34N 35°28' E 139°48'10 1.4
2014-Sep-20 23:30N 35°37' E 139°46'8 4.1
2014-Sep-20 21:30N 35°32' E 139°53'1213.0
2014-Sep-20 20:34N 35°22' E 139°45'1312.8
2014-Sep-20 19:33N 35°09' E 139°46'  
Track history (hours):
 
Tides and Currents Weather Stations Pressure Air Temp Water Temp Dewpoint Dewpoint Depression Visibility Wind Speed Wind Dir Waves Ship Positions

Kamikawa Maru

Last reported at 2014-Sep-30 12:08 UTC. Time now 2014-Oct-02 06:27 UTC.
Position N 35°02' E 139°44'.

Length 162 m; draft 6.8 m.

Type: Cargo ship. MMSI: 431101012.

Date/timePositionNaut miles runAvg speedWind from/ knotsBaromVisibWave heightAir tempDewpointWater temp
2014-Sep-30 12:08N 35°02' E 139°44'1118.4
2014-Sep-30 11:33N 35°13' E 139°46'1312.9
2014-Sep-30 10:33N 35°26' E 139°44'1212.4
2014-Sep-30 09:33N 35°38' E 139°46'0 0.1
2014-Sep-30 08:15N 35°38' E 139°46'0 0.0
2014-Sep-30 06:31N 35°38' E 139°46'0 0.0
2014-Sep-30 05:31N 35°38' E 139°46'0 0.0
2014-Sep-30 04:33N 35°38' E 139°46'0 0.0
2014-Sep-30 03:33N 35°38' E 139°46'0 0.0
2014-Sep-30 02:31N 35°38' E 139°46'0 0.1
2014-Sep-30 01:33N 35°38' E 139°46'0 0.0
2014-Sep-30 00:32N 35°38' E 139°46'0 0.1
2014-Sep-29 23:33N 35°38' E 139°46'10 9.8
2014-Sep-29 22:33N 35°30' E 139°52'1212.4
2014-Sep-29 21:34N 35°19' E 139°44'1413.8
2014-Sep-29 20:33N 35°05' E 139°45'2 0.1
2014-Sep-28 07:33N 35°07' E 139°43'1413.6
2014-Sep-28 06:34N 35°21' E 139°42'1614.8
2014-Sep-28 05:28N 35°36' E 139°46'1 0.2
2014-Sep-27 23:31N 35°38' E 139°46'8 3.7
2014-Sep-27 21:24N 35°33' E 139°53'1213.9
2014-Sep-27 20:33N 35°23' E 139°46'1211.7
2014-Sep-27 19:33N 35°11' E 139°47'  
2014-Sep-21 08:33N 35°02' E 139°37'1615.5
2014-Sep-21 07:33N 35°17' E 139°45'1211.8
2014-Sep-21 06:34N 35°28' E 139°48'10 1.4
2014-Sep-20 23:30N 35°37' E 139°46'8 4.1
2014-Sep-20 21:30N 35°32' E 139°53'1213.0
2014-Sep-20 20:34N 35°22' E 139°45'1312.8
2014-Sep-20 19:33N 35°09' E 139°46'  

Dump ship's entire track history